Latest Weather Observations for Dennes Point

IDT60801

Issued at 9:02 pm EDT Thursday 21 February 2019 (issued every 10 minutes, with the page automatically refreshed every 10 minutes)

About weather observations | Map of weather stations | Latest weather observations for TAS | Other Formats
Station Details ID: 094255 Name: DENNES POINT Lat: -43.06 Lon: 147.36 Height: 5.67 m
Data from the previous 72 hours. | See also: Recent months at Dennes Point
Date/Time
EDT
Temp
°C
App
Temp
°C
Dew
Point
°C
Rel
Hum
%
Delta-T
°C
Wind Press
QNH
hPa
Press
MSL
hPa
Rain since
9am
mm
Dir  Spd
km/h
Gust
km/h
Spd
kts
Gust
kts
21/09:00pm 14.9 11.5 7.7 62 3.6 WSW 15 20 8 11 1018.9 1018.8 0.0
21/08:30pm 15.4 12.1 7.9 61 3.8 SW 15 19 8 10 1018.4 1018.3 0.0
21/08:00pm 15.8 11.4 7.3 57 4.2 WSW 20 26 11 14 1018.1 1018.0 0.0
21/07:30pm 16.3 11.3 8.0 58 4.2 WSW 24 39 13 21 1017.4 1017.3 0.0
21/07:00pm 16.6 12.4 7.3 54 4.6 WSW 19 30 10 16 1017.1 1017.0 0.0
21/06:30pm 16.7 12.5 7.4 54 4.6 WSW 19 26 10 14 1016.9 1016.8 0.0
21/06:00pm 16.9 11.0 7.3 53 4.8 SW 28 35 15 19 1016.5 1016.4 0.0
21/05:30pm 17.1 10.4 7.5 53 4.8 WSW 32 43 17 23 1016.0 1015.9 0.0
21/05:00pm 17.2 9.5 7.0 51 5.1 WSW 37 46 20 25 1015.7 1015.6 0.0
21/04:39pm 17.7 11.4 7.4 51 5.2 WSW 30 50 16 27 1015.4 1015.3 0.0
21/04:30pm 17.5 12.4 7.5 52 5.0 WSW 24 32 13 17 1015.5 1015.4 0.0
21/04:00pm 16.7 12.9 8.9 60 4.0 WSW 19 33 10 18 1015.5 1015.4 0.0
21/03:30pm 17.5 11.9 8.9 57 4.5 WSW 28 43 15 23 1015.2 1015.1 0.0
21/03:04pm 17.4 11.9 9.3 59 4.2 WSW 28 46 15 25 1015.1 1015.0 0.0
21/03:00pm 17.3 12.8 8.7 57 4.4 WSW 22 30 12 16 1015.2 1015.1 0.0
21/02:30pm 17.7 12.2 7.7 52 5.1 WSW 26 39 14 21 1014.7 1014.6 0.0
21/02:00pm 18.1 12.0 8.4 53 5.0 W 30 39 16 21 1014.7 1014.6 0.0
21/01:42pm 18.4 12.2 9.5 56 4.7 WSW 32 52 17 28 1014.7 1014.6 0.0
21/01:30pm 17.7 11.9 9.3 58 4.4 WSW 30 37 16 20 1014.6 1014.5 0.0
21/01:00pm 16.7 11.2 9.1 61 3.9 W 28 37 15 20 1014.3 1014.2 0.0
21/12:30pm 16.4 12.0 8.9 61 3.9 SW 22 32 12 17 1013.9 1013.8 0.0
21/12:00pm 16.4 12.6 9.1 62 3.8 SW 19 26 10 14 1013.6 1013.5 0.0
21/11:30am 16.1 10.3 9.3 64 3.5 WSW 30 37 16 20 1013.1 1013.0 0.0
21/11:00am 15.8 11.3 8.5 62 3.7 W 22 30 12 16 1012.9 1012.8 0.0
21/10:30am 15.8 11.5 7.8 59 4.0 W 20 32 11 17 1012.5 1012.4 0.0
21/10:00am 15.5 11.7 7.5 59 4.0 W 17 24 9 13 1012.3 1012.2 0.0
21/09:30am 15.3 10.8 7.1 58 4.0 W 20 28 11 15 1011.8 1011.7 0.0
21/09:00am 15.7 11.3 7.2 57 4.2 WNW 20 30 11 16 1011.7 1011.6 0.0
21/08:30am 14.5 10.4 6.3 58 3.9 WNW 17 26 9 14 1011.5 1011.4 0.0
21/08:00am 14.0 8.5 6.1 59 3.8 WNW 24 32 13 17 1011.1 1011.0 0.0
21/07:30am 13.6 9.4 5.7 59 3.7 WNW 17 24 9 13 1010.8 1010.7 0.0
21/07:00am 13.3 10.5 5.2 58 3.8 NW 9 13 5 7 1010.6 1010.5 0.0
21/06:30am 12.8 10.3 4.8 58 3.7 NW 7 11 4 6 1010.8 1010.7 0.0
21/06:00am 11.6 10.0 4.3 61 3.3 NNW 2 9 1 5 1010.7 1010.6 0.0
21/05:30am 11.3 8.9 4.1 61 3.2 WSW 6 9 3 5 1010.7 1010.6 0.0
21/05:00am 12.5 8.1 5.0 60 3.5 WNW 17 22 9 12 1010.6 1010.5 0.0
21/04:30am 12.3 7.9 4.5 59 3.5 WNW 17 20 9 11 1010.4 1010.3 0.0
21/04:00am 12.0 7.3 5.2 63 3.1 WNW 19 24 10 13 1010.5 1010.4 0.0
21/03:30am 12.1 7.9 5.9 66 2.9 NW 17 28 9 15 1010.5 1010.4 0.0
21/03:00am 12.2 8.3 5.4 63 3.2 NW 15 19 8 10 1010.6 1010.5 0.0
21/02:30am 11.9 8.5 5.8 66 2.8 WNW 13 19 7 10 1010.8 1010.7 0.0
21/02:00am 12.6 6.9 4.8 59 3.6 WNW 24 32 13 17 1010.7 1010.6 0.0
21/01:30am 12.0 7.5 6.3 68 2.7 WNW 19 22 10 12 1010.7 1010.6 0.0
21/01:00am 12.2 8.4 5.8 65 3.0 NW 15 26 8 14 1011.0 1010.9 0.0
21/12:30am 12.1 9.2 6.6 69 2.6 WNW 11 17 6 9 1011.2 1011.1 0.0
21/12:00am 12.6 8.4 5.8 63 3.2 NW 17 24 9 13 1010.7 1010.6 0.0
 
Date/Time
EDT
Temp
°C
App
Temp
°C
Dew
Point
°C
Rel
Hum
%
Delta-T
°C
Wind Press
QNH
hPa
Press
MSL
hPa
Rain since
9am
mm
Dir  Spd
km/h
Gust
km/h
Spd
kts
Gust
kts
20/11:30pm 13.1 9.6 5.5 60 3.6 NW 13 20 7 11 1011.0 1010.9 0.0
20/11:00pm 13.7 9.9 3.8 51 4.5 NW 13 17 7 9 1010.8 1010.7 0.0
20/10:30pm 14.0 9.1 4.0 51 4.6 WNW 19 28 10 15 1010.6 1010.5 0.0
20/10:00pm 14.0 11.5 4.9 54 4.2 NW 7 11 4 6 1010.7 1010.6 0.0
20/09:30pm 13.9 9.3 3.9 51 4.5 W 17 26 9 14 1010.4 1010.3 0.0
20/09:00pm 14.1 9.4 5.2 55 4.2 WNW 19 26 10 14 1010.1 1010.0 0.0
20/08:30pm 14.2 10.6 4.8 53 4.4 WNW 13 19 7 10 1009.8 1009.7 0.0
20/08:00pm 14.1 9.0 6.0 58 3.9 WNW 22 32 12 17 1009.4 1009.3 0.0
20/07:30pm 14.2 9.8 6.6 60 3.7 WNW 19 26 10 14 1009.1 1009.0 0.0
20/07:00pm 15.0 10.5 6.3 56 4.2 WNW 19 24 10 13 1008.7 1008.6 0.0
20/06:30pm 15.4 10.7 5.9 53 4.6 W 20 30 11 16 1008.2 1008.1 0.0
20/06:00pm 15.7 10.2 5.9 52 4.7 W 24 32 13 17 1008.0 1007.9 0.0
20/05:30pm 15.7 9.9 6.2 53 4.6 WSW 26 37 14 20 1007.7 1007.6 0.0
20/05:00pm 17.0 10.7 5.6 47 5.5 WSW 28 44 15 24 1007.4 1007.3 0.0
20/04:30pm 17.9 10.3 3.8 39 6.6 W 33 48 18 26 1006.6 1006.5 0.0
20/04:00pm 18.9 11.1 5.0 40 6.7 W 35 57 19 31 1006.4 1006.3 0.0
20/03:57pm 18.4 10.6 4.9 41 6.5 W 35 57 19 31 1006.4 1006.3 0.0
20/03:30pm 17.5 9.3 6.4 48 5.5 WSW 39 50 21 27 1006.5 1006.4 0.0
20/03:00pm 19.5 12.6 7.3 45 6.2 WSW 33 48 18 26 1006.2 1006.1 0.0
20/02:30pm 19.3 13.8 7.4 46 6.1 W 26 41 14 22 1006.1 1006.0 0.0
20/02:00pm 19.5 15.4 10.0 54 5.1 WSW 22 32 12 17 1006.3 1006.2 0.0
20/01:30pm 17.5 13.9 10.6 64 3.7 SW 20 28 11 15 1006.1 1006.0 0.0
20/01:00pm 17.4 13.6 9.8 61 4.0 WNW 20 32 11 17 1006.1 1006.0 0.0
20/12:30pm 15.9 12.6 10.9 72 2.7 WSW 19 26 10 14 1006.2 1006.1 0.0
20/12:02pm 17.9 12.5 9.5 58 4.4 WSW 28 50 15 27 1005.9 1005.8 0.0
20/12:00pm 17.8 13.0 8.9 56 4.6 WSW 24 35 13 19 1005.8 1005.7 0.0
20/11:30am 18.4 15.2 8.4 52 5.2 W 15 24 8 13 1005.4 1005.3 0.0
20/11:00am 18.0 15.1 8.0 52 5.1 WNW 13 22 7 12 1005.7 1005.6 0.0
20/10:30am 17.6 13.8 9.0 57 4.5 NW 19 28 10 15 1005.7 1005.6 0.0
20/10:00am 17.5 14.3 8.6 56 4.6 NW 15 28 8 15 1005.6 1005.5 0.0
20/09:30am 16.9 13.4 8.6 58 4.3 NNW 17 22 9 12 1005.8 1005.7 0.0
20/09:00am 16.5 13.2 8.2 58 4.2 NNW 15 24 8 13 1005.7 1005.6 0.0
20/08:30am 15.7 11.8 7.2 57 4.2 NW 17 28 9 15 1005.9 1005.8 0.0
20/08:00am 15.5 12.9 7.8 60 3.9 NNW 11 17 6 9 1005.8 1005.7 0.0
20/07:30am 14.9 11.6 8.2 64 3.4 NNW 15 22 8 12 1005.8 1005.7 0.0
20/07:00am 14.4 11.2 6.7 60 3.7 NW 13 24 7 13 1005.7 1005.6 0.0
20/06:30am 13.9 11.7 6.3 60 3.6 NW 7 13 4 7 1006.0 1005.9 0.0
20/06:00am 14.2 10.9 6.3 59 3.8 NNW 13 22 7 12 1006.3 1006.2 0.0
20/05:30am 14.2 9.6 6.3 59 3.8 WNW 20 24 11 13 1006.4 1006.3 0.0
20/05:00am 14.1 10.0 6.2 59 3.8 WNW 17 28 9 15 1006.6 1006.5 0.0
20/04:30am 14.3 11.2 5.7 56 4.1 WNW 11 20 6 11 1006.9 1006.8 0.0
20/04:00am 14.2 10.9 6.3 59 3.8 NW 13 28 7 15 1007.2 1007.1 0.0
20/03:30am 14.0 10.5 5.6 57 4.0 WNW 13 17 7 9 1007.4 1007.3 0.0
20/03:00am 14.1 8.6 6.0 58 3.9 WNW 24 33 13 18 1007.5 1007.4 0.0
20/02:30am 14.3 8.2 6.6 60 3.7 W 28 33 15 18 1007.7 1007.6 0.0
20/02:00am 14.2 10.9 6.3 59 3.8 W 13 28 7 15 1008.3 1008.2 0.0
20/01:30am 14.4 9.0 6.5 59 3.8 W 24 30 13 16 1008.4 1008.3 0.0
20/01:00am 14.2 11.2 5.8 57 4.0 W 11 22 6 12 1008.7 1008.6 0.0
20/12:30am 14.9 11.9 6.2 56 4.2 NNW 11 19 6 10 1008.9 1008.8 0.0
20/12:00am 14.7 10.2 6.3 57 4.1 WNW 19 30 10 16 1008.9 1008.8 0.0
 
Date/Time
EDT
Temp
°C
App
Temp
°C
Dew
Point
°C
Rel
Hum
%
Delta-T
°C
Wind Press
QNH
hPa
Press
MSL
hPa
Rain since
9am
mm
Dir  Spd
km/h
Gust
km/h
Spd
kts
Gust
kts
19/11:30pm 14.9 11.7 4.9 51 4.7 WNW 11 19 6 10 1009.0 1008.9 0.0
19/11:00pm 14.9 8.3 6.0 55 4.3 W 30 43 16 23 1009.3 1009.2 0.0
19/10:30pm 14.8 7.8 5.9 55 4.3 WNW 32 43 17 23 1009.5 1009.4 0.0
19/10:02pm 15.0 8.8 6.3 56 4.2 WNW 28 48 15 26 1009.4 1009.3 0.0
19/10:00pm 15.2 9.6 7.3 59 3.9 WNW 26 35 14 19 1009.5 1009.4 0.0
19/09:30pm 15.5 13.2 7.5 59 4.0 WNW 9 13 5 7 1009.5 1009.4 0.0
19/09:00pm 15.4 12.3 7.2 58 4.1 W 13 17 7 9 1009.2 1009.1 0.0
19/08:30pm 15.7 12.3 7.7 59 4.0 W 15 19 8 10 1008.8 1008.7 0.0
19/08:00pm 15.9 12.4 7.4 57 4.2 WSW 15 20 8 11 1008.5 1008.4 0.0
19/07:30pm 16.6 14.7 7.5 55 4.6 NW 7 13 4 7 1008.1 1008.0 0.0
19/07:00pm 16.0 13.3 7.2 56 4.4 NW 11 19 6 10 1007.9 1007.8 0.0
19/06:30pm 16.5 11.3 7.4 55 4.5 W 24 30 13 16 1007.7 1007.6 0.0
19/06:00pm 17.8 12.5 8.6 55 4.8 WSW 26 35 14 19 1007.5 1007.4 0.0
19/05:30pm 18.5 12.9 7.3 48 5.7 WSW 26 33 14 18 1007.4 1007.3 0.0
19/05:00pm 17.5 12.6 7.0 50 5.2 W 22 28 12 15 1007.0 1006.9 0.0
19/04:30pm 18.0 13.8 7.4 50 5.3 W 19 24 10 13 1007.1 1007.0 0.0
19/04:00pm 18.0 11.8 8.0 52 5.1 WSW 30 43 16 23 1007.1 1007.0 0.0
19/03:30pm 16.9 11.5 6.4 50 5.1 WSW 24 37 13 20 1006.9 1006.8 0.0
19/03:00pm 17.0 13.3 6.5 50 5.2 W 15 22 8 12 1006.9 1006.8 0.0
19/02:30pm 17.3 11.1 6.2 48 5.4 W 28 39 15 21 1006.9 1006.8 0.0
19/02:00pm 18.1 12.4 6.9 48 5.6 WSW 26 37 14 20 1006.5 1006.4 0.0
19/01:30pm 16.7 10.5 6.2 50 5.1 W 28 43 15 23 1006.5 1006.4 0.0
19/01:00pm 16.4 12.1 5.4 48 5.3 W 17 35 9 19 1006.2 1006.1 0.0
19/12:30pm 17.3 10.6 7.4 52 5.0 W 32 44 17 24 1006.3 1006.2 0.0
19/12:00pm 16.0 8.7 7.2 56 4.4 W 35 44 19 24 1006.0 1005.9 0.0
19/11:30am 14.7 8.7 5.5 54 4.4 W 26 35 14 19 1006.4 1006.3 0.0
19/11:00am 15.1 8.2 6.4 56 4.2 WSW 32 43 17 23 1005.5 1005.4 0.0
19/10:30am 16.3 9.3 6.2 51 4.9 W 32 43 17 23 1005.1 1005.0 0.0
19/10:18am 16.4 10.2 6.0 50 5.0 W 28 48 15 26 1004.9 1004.8 0.0
19/10:00am 15.8 9.4 5.1 49 5.1 W 28 41 15 22 1004.9 1004.8 0.0
19/09:30am 14.5 7.4 5.6 55 4.2 W 32 52 17 28 1004.6 1004.5 0.0
19/09:21am 14.8 7.9 6.4 57 4.1 W 32 52 17 28 1004.4 1004.3 0.0
19/09:00am 14.6 9.2 4.3 50 4.8 W 22 30 12 16 1003.9 1003.8 0.0
19/08:30am 14.7 8.3 5.2 53 4.5 W 28 39 15 21 1003.5 1003.4 0.0
19/08:00am 13.9 8.7 5.3 56 4.0 W 22 32 12 17 1003.7 1003.6 0.0
19/07:30am 13.5 7.7 4.6 55 4.1 W 24 35 13 19 1003.5 1003.4 0.0
19/07:00am 13.6 8.1 3.9 52 4.4 W 22 32 12 17 1003.2 1003.1 0.0
19/06:30am 13.4 8.3 4.0 53 4.3 WNW 20 35 11 19 1002.8 1002.7 0.0
19/06:00am 13.0 8.3 3.4 52 4.3 WNW 17 30 9 16 1002.6 1002.5 0.0
19/05:30am 13.2 9.7 3.3 51 4.4 WNW 11 19 6 10 1002.7 1002.6 0.0
19/05:00am 13.1 7.9 3.7 53 4.3 W 20 32 11 17 1002.5 1002.4 0.0
19/04:30am 13.2 8.0 3.6 52 4.3 WNW 20 32 11 17 1002.6 1002.5 0.0
19/04:00am 13.4 9.9 3.5 51 4.5 NW 11 15 6 8 1002.9 1002.8 0.0
19/03:30am 12.9 9.0 3.3 52 4.3 W 13 20 7 11 1002.8 1002.7 0.0
19/03:00am 12.9 8.3 3.6 53 4.2 W 17 30 9 16 1002.8 1002.7 0.0
19/02:30am 13.2 9.1 4.4 55 4.0 WNW 15 24 8 13 1002.9 1002.8 0.0
19/02:00am 13.1 9.4 4.5 56 4.0 NW 13 20 7 11 1002.9 1002.8 0.0
19/01:30am 12.9 8.8 4.1 55 4.0 WNW 15 22 8 12 1003.1 1003.0 0.0
19/01:00am 13.3 8.5 4.5 55 4.1 NW 19 24 10 13 1002.9 1002.8 0.0
19/12:30am 13.3 9.3 4.7 56 4.0 NW 15 17 8 9 1003.3 1003.2 0.0
19/12:00am 13.2 9.0 3.8 53 4.3 WNW 15 26 8 14 1003.0 1002.9 0.0
 
Date/Time
EDT
Temp
°C
App
Temp
°C
Dew
Point
°C
Rel
Hum
%
Delta-T
°C
Wind Press
QNH
hPa
Press
MSL
hPa
Rain since
9am
mm
Dir  Spd
km/h
Gust
km/h
Spd
kts
Gust
kts
18/11:30pm 13.2 9.4 4.1 54 4.1 WNW 13 20 7 11 1002.9 1002.8 0.0
18/11:00pm 13.4 9.4 5.1 57 3.9 WNW 15 28 8 15 1002.8 1002.7 0.0
18/10:30pm 13.6 10.1 5.5 58 3.8 NW 13 20 7 11 1002.9 1002.8 0.0
18/10:00pm 13.1 10.3 5.0 58 3.8 NW 9 15 5 8 1002.8 1002.7 0.0
18/09:30pm 13.4 10.7 7.2 66 3.0 NW 11 22 6 12 1002.6 1002.5 0.0

Other formats

Comma delimited format used in spreadsheet applications
http://www.bom.gov.au/fwo/IDT60801/IDT60801.94988.axf

JavaScript Object Notation format (JSON) in row-major order
http://www.bom.gov.au/fwo/IDT60801/IDT60801.94988.json

Data quality

Most of these data are generated automatically and are frequently updated. Quality checks on data are not normally performed. It is possible for incorrect values to appear. Refer to information at About Latest Weather Observations and please check the disclaimer before using these data.